createdAt,value
2019-02-15T00:03:16.330Z,1027.89
2019-02-15T00:08:13.432Z,1027.90
2019-02-15T00:13:13.545Z,1027.83
2019-02-15T00:18:08.299Z,1027.73
2019-02-15T00:23:03.522Z,1027.75
2019-02-15T00:27:59.046Z,1027.77
2019-02-15T00:32:54.571Z,1027.90
2019-02-15T00:37:50.171Z,1027.92
2019-02-15T00:42:45.815Z,1027.95
2019-02-15T00:47:41.644Z,1027.86
2019-02-15T00:52:37.515Z,1027.84
2019-02-15T00:57:33.111Z,1027.81
2019-02-15T01:02:28.737Z,1027.71
2019-02-15T01:07:24.366Z,1027.81
2019-02-15T01:12:19.972Z,1027.85
2019-02-15T01:17:16.469Z,1027.78
2019-02-15T01:22:11.495Z,1027.76
2019-02-15T01:27:06.958Z,1027.66
2019-02-15T01:32:02.561Z,1027.79
2019-02-15T01:36:58.073Z,1027.67
2019-02-15T01:41:53.774Z,1027.63
2019-02-15T01:46:49.715Z,1027.59
2019-02-15T01:51:45.870Z,1027.51
2019-02-15T01:56:41.171Z,1027.47
2019-02-15T02:01:36.772Z,1027.35
2019-02-15T02:06:33.431Z,1027.42
2019-02-15T02:11:28.859Z,1027.38
2019-02-15T02:16:24.584Z,1027.34
2019-02-15T02:21:20.079Z,1027.25
2019-02-15T02:26:16.249Z,1027.12
2019-02-15T02:31:11.918Z,1027.12
2019-02-15T02:36:07.160Z,1027.13
2019-02-15T02:41:02.593Z,1027.14
2019-02-15T02:45:58.241Z,1027.15
2019-02-15T02:50:53.863Z,1027.10
2019-02-15T02:55:49.411Z,1027.15
2019-02-15T03:00:45.176Z,1027.00
2019-02-15T03:05:40.694Z,1026.98
2019-02-15T03:10:36.036Z,1026.97
2019-02-15T03:15:31.543Z,1027.00
2019-02-15T03:20:31.236Z,1026.99
2019-02-15T03:25:25.430Z,1026.84
2019-02-15T03:30:21.884Z,1026.92
2019-02-15T03:35:16.955Z,1026.82
2019-02-15T03:40:12.379Z,1026.90
2019-02-15T03:45:08.980Z,1026.74
2019-02-15T03:50:04.968Z,1026.77
2019-02-15T03:55:01.864Z,1026.74
2019-02-15T03:59:57.205Z,1026.71
2019-02-15T04:04:52.758Z,1026.72
2019-02-15T04:09:48.456Z,1026.68
2019-02-15T04:14:44.734Z,1026.66
2019-02-15T04:19:40.234Z,1026.66
2019-02-15T04:24:35.605Z,1026.82
2019-02-15T04:29:31.053Z,1026.78
2019-02-15T04:34:28.062Z,1026.80
2019-02-15T04:39:23.495Z,1026.75
2019-02-15T04:44:19.066Z,1026.76
2019-02-15T04:49:15.635Z,1026.81
2019-02-15T04:54:11.284Z,1026.78
2019-02-15T04:59:06.799Z,1026.79
2019-02-15T05:04:03.738Z,1026.76
2019-02-15T05:08:59.146Z,1026.76
2019-02-15T05:13:54.789Z,1026.70
2019-02-15T05:18:51.202Z,1026.74
2019-02-15T05:23:47.767Z,1026.70
2019-02-15T05:28:43.115Z,1026.71
2019-02-15T05:33:39.602Z,1026.78
2019-02-15T05:38:34.985Z,1026.78
2019-02-15T05:43:30.571Z,1026.80
2019-02-15T05:48:26.135Z,1026.74
2019-02-15T05:53:21.842Z,1026.74
2019-02-15T05:58:17.498Z,1026.67
2019-02-15T06:03:13.831Z,1026.65
2019-02-15T06:08:09.436Z,1026.63
2019-02-15T06:13:05.706Z,1026.58
2019-02-15T06:18:01.468Z,1026.64
2019-02-15T06:22:58.190Z,1026.70
2019-02-15T06:27:54.512Z,1026.65
2019-02-15T06:32:51.152Z,1026.71
2019-02-15T06:37:46.464Z,1026.71
2019-02-15T06:42:42.690Z,1026.77
2019-02-15T06:47:38.040Z,1026.78
2019-02-15T06:52:33.471Z,1026.64
2019-02-15T06:57:29.804Z,1026.68
2019-02-15T07:02:25.077Z,1026.77
2019-02-15T07:07:21.714Z,1026.72
2019-02-15T07:12:16.914Z,1026.72
2019-02-15T07:17:12.663Z,1026.66
2019-02-15T07:22:08.351Z,1026.75
2019-02-15T07:27:05.007Z,1026.77
2019-02-15T07:32:00.123Z,1026.79
2019-02-15T07:36:55.990Z,1026.74
2019-02-15T07:41:51.890Z,1026.78
2019-02-15T07:46:47.781Z,1026.73
2019-02-15T07:51:43.447Z,1026.73
2019-02-15T07:56:39.226Z,1026.72
2019-02-15T08:01:34.983Z,1026.73
2019-02-15T08:06:31.010Z,1026.67
2019-02-15T08:11:26.819Z,1026.61
2019-02-15T08:16:22.655Z,1026.56
2019-02-15T08:21:18.623Z,1026.61
2019-02-15T08:26:14.434Z,1026.59
2019-02-15T08:31:10.176Z,1026.48
2019-02-15T08:36:06.213Z,1026.49
2019-02-15T08:41:02.067Z,1026.49
2019-02-15T08:46:01.524Z,1026.40
2019-02-15T08:50:58.215Z,1026.43
2019-02-15T08:55:53.859Z,1026.53
2019-02-15T09:00:49.645Z,1026.53
2019-02-15T09:05:45.369Z,1026.48
2019-02-15T09:10:41.142Z,1026.37
2019-02-15T09:15:36.918Z,1026.40
2019-02-15T09:20:34.054Z,1026.46
2019-02-15T09:25:29.909Z,1026.42
2019-02-15T09:30:25.705Z,1026.44
2019-02-15T09:35:21.987Z,1026.40
2019-02-15T09:40:17.738Z,1026.40
2019-02-15T09:45:13.914Z,1026.27
2019-02-15T09:50:12.145Z,1026.33
2019-02-15T09:55:07.818Z,1026.23
2019-02-15T10:00:04.589Z,1026.25
2019-02-15T10:05:00.738Z,1026.21
2019-02-15T10:09:57.641Z,1026.15
2019-02-15T10:14:53.392Z,1026.16
2019-02-15T10:19:50.332Z,1026.22
2019-02-15T10:24:46.079Z,1026.24
2019-02-15T10:29:42.878Z,1026.27
2019-02-15T10:34:38.993Z,1026.24
2019-02-15T10:39:35.123Z,1026.16
2019-02-15T10:44:31.432Z,1026.12
2019-02-15T10:49:27.515Z,1026.09
2019-02-15T10:54:23.515Z,1026.02
2019-02-15T10:59:20.037Z,1026.04
2019-02-15T11:04:17.064Z,1025.90
2019-02-15T11:09:13.100Z,1025.83
2019-02-15T11:14:09.039Z,1025.82
2019-02-15T11:19:05.858Z,1025.72
2019-02-15T11:24:01.373Z,1025.66
2019-02-15T11:28:57.439Z,1025.70
2019-02-15T11:33:53.489Z,1025.58
2019-02-15T11:38:49.369Z,1025.51
2019-02-15T11:43:45.181Z,1025.53
2019-02-15T11:48:42.359Z,1025.41
2019-02-15T11:53:39.015Z,1025.39
2019-02-15T11:58:34.489Z,1025.27
2019-02-15T12:03:30.249Z,1025.21
2019-02-15T12:08:26.471Z,1025.10
2019-02-15T12:13:23.025Z,1025.13
2019-02-15T12:18:19.148Z,1024.97
2019-02-15T12:23:14.963Z,1025.00
2019-02-15T12:28:10.907Z,1024.98
2019-02-15T12:33:06.553Z,1024.93
2019-02-15T12:38:04.075Z,1024.72
2019-02-15T12:42:59.521Z,1024.70
2019-02-15T12:47:55.325Z,1024.69
2019-02-15T12:52:51.168Z,1024.62
2019-02-15T12:57:47.759Z,1024.47
2019-02-15T13:02:43.824Z,1024.45
2019-02-15T13:07:39.839Z,1024.38
2019-02-15T13:12:35.907Z,1024.30
2019-02-15T13:17:31.703Z,1024.29
2019-02-15T13:22:27.779Z,1024.17
2019-02-15T13:27:24.625Z,1024.12
2019-02-15T13:32:19.927Z,1024.07
2019-02-15T13:37:16.344Z,1024.06
2019-02-15T13:42:11.777Z,1023.97
2019-02-15T13:47:07.720Z,1023.81
2019-02-15T13:52:03.598Z,1023.77
2019-02-15T13:56:59.503Z,1023.71
2019-02-15T14:01:55.446Z,1023.62
2019-02-15T14:06:51.617Z,1023.54
2019-02-15T14:11:47.585Z,1023.62
2019-02-15T14:16:43.370Z,1023.44
2019-02-15T14:21:44.484Z,1023.45
2019-02-15T14:26:39.503Z,1023.39
2019-02-15T14:31:34.914Z,1023.31
2019-02-15T14:36:31.544Z,1023.22
2019-02-15T14:41:27.941Z,1023.13
2019-02-15T14:46:23.675Z,1023.09
2019-02-15T14:51:19.387Z,1023.08
2019-02-15T14:56:15.505Z,1023.04
2019-02-15T15:01:12.787Z,1022.94
2019-02-15T15:06:08.216Z,1022.89
2019-02-15T15:11:03.851Z,1022.84
2019-02-15T15:16:00.046Z,1022.83
2019-02-15T15:20:56.015Z,1022.75
2019-02-15T15:25:52.779Z,1022.79
2019-02-15T15:30:50.012Z,1022.68
2019-02-15T15:35:45.429Z,1022.63
2019-02-15T15:40:41.134Z,1022.55
2019-02-15T15:45:38.017Z,1022.49
2019-02-15T15:50:34.357Z,1022.49
2019-02-15T15:55:29.734Z,1022.37
2019-02-15T16:00:26.467Z,1022.37
2019-02-15T16:05:22.853Z,1022.30
2019-02-15T16:10:18.687Z,1022.32
2019-02-15T16:15:14.698Z,1022.28
2019-02-15T16:20:10.541Z,1022.23
2019-02-15T16:25:07.085Z,1022.20
2019-02-15T16:30:02.453Z,1022.23
2019-02-15T16:34:58.210Z,1022.24
2019-02-15T16:39:53.950Z,1022.22
2019-02-15T16:44:50.586Z,1022.24
2019-02-15T16:49:45.821Z,1022.24
2019-02-15T16:54:41.878Z,1022.27
2019-02-15T16:59:37.632Z,1022.21
2019-02-15T17:04:33.298Z,1022.16
2019-02-15T17:09:29.750Z,1022.16
2019-02-15T17:14:25.109Z,1022.24
2019-02-15T17:19:21.724Z,1022.12
2019-02-15T17:24:16.890Z,1022.10
2019-02-15T17:29:12.464Z,1022.11
2019-02-15T17:34:07.996Z,1022.16
2019-02-15T17:39:03.769Z,1022.16
2019-02-15T17:43:59.473Z,1022.05
2019-02-15T17:49:00.764Z,1021.98
2019-02-15T17:53:54.798Z,1022.01
2019-02-15T17:58:50.799Z,1021.97
2019-02-15T18:03:46.594Z,1021.96
2019-02-15T18:08:42.253Z,1021.91
2019-02-15T18:13:37.924Z,1021.95
2019-02-15T18:18:33.757Z,1021.95
2019-02-15T18:23:29.552Z,1021.93
2019-02-15T18:28:25.311Z,1021.87
2019-02-15T18:33:20.896Z,1021.80
2019-02-15T18:38:16.941Z,1021.75
2019-02-15T18:43:12.583Z,1021.75
2019-02-15T18:48:08.266Z,1021.66
2019-02-15T18:53:05.376Z,1021.64
2019-02-15T18:58:00.531Z,1021.63
2019-02-15T19:02:56.524Z,1021.58
2019-02-15T19:07:52.562Z,1021.51
2019-02-15T19:12:48.220Z,1021.49
2019-02-15T19:17:43.868Z,1021.55
2019-02-15T19:22:39.379Z,1021.53
2019-02-15T19:27:35.019Z,1021.48
2019-02-15T19:32:30.646Z,1021.41
2019-02-15T19:37:26.032Z,1021.37
2019-02-15T19:42:21.966Z,1021.39
2019-02-15T19:47:17.431Z,1021.37
2019-02-15T19:52:13.444Z,1021.38
2019-02-15T19:57:09.712Z,1021.27
2019-02-15T20:02:05.281Z,1021.16
2019-02-15T20:07:03.025Z,1021.15
2019-02-15T20:11:59.348Z,1021.18
2019-02-15T20:16:54.750Z,1021.18
2019-02-15T20:21:51.653Z,1021.18
2019-02-15T20:26:47.190Z,1021.14
2019-02-15T20:31:42.902Z,1021.05
2019-02-15T20:36:38.760Z,1021.13
2019-02-15T20:41:34.473Z,1021.11
2019-02-15T20:46:31.189Z,1021.07
2019-02-15T20:51:26.428Z,1021.13
2019-02-15T20:56:22.091Z,1021.03
2019-02-15T21:01:18.975Z,1021.03
2019-02-15T21:06:14.740Z,1021.02
2019-02-15T21:11:10.479Z,1021.01
2019-02-15T21:16:06.919Z,1021.07
2019-02-15T21:21:02.280Z,1020.98
2019-02-15T21:25:58.258Z,1021.11
2019-02-15T21:30:54.266Z,1020.99
2019-02-15T21:35:49.396Z,1020.94
2019-02-15T21:40:45.118Z,1020.85
2019-02-15T21:45:40.703Z,1020.93
2019-02-15T21:50:36.370Z,1020.97
2019-02-15T21:55:32.123Z,1020.97
2019-02-15T22:00:27.827Z,1020.89
2019-02-15T22:05:23.452Z,1020.92
2019-02-15T22:10:19.316Z,1020.87
2019-02-15T22:15:15.109Z,1020.82
2019-02-15T22:20:10.712Z,1021.01
2019-02-15T22:25:07.531Z,1020.94
2019-02-15T22:30:02.671Z,1020.88
2019-02-15T22:34:59.478Z,1020.84
2019-02-15T22:39:54.524Z,1020.83
2019-02-15T22:44:50.166Z,1020.81
2019-02-15T22:49:46.991Z,1020.82
2019-02-15T22:54:42.309Z,1020.78
2019-02-15T22:59:38.423Z,1020.65
2019-02-15T23:04:35.026Z,1020.63
2019-02-15T23:09:31.767Z,1020.62
2019-02-15T23:14:27.258Z,1020.68
2019-02-15T23:19:22.906Z,1020.52
2019-02-15T23:24:18.445Z,1020.48
2019-02-15T23:29:14.348Z,1020.54
2019-02-15T23:34:10.030Z,1020.43
2019-02-15T23:39:06.688Z,1020.41
2019-02-15T23:44:02.514Z,1020.48
2019-02-15T23:48:57.990Z,1020.40
2019-02-15T23:53:53.903Z,1020.51
2019-02-15T23:58:49.581Z,1020.38
